Time;durP1;ratioP1;P1;durP2;ratioP2;P2;SDS_P1;SDS_P2;PMS_P1;PMS_P2;Temp;Humidity;BMP_temperature;BMP_pressure;BME280_temperature;BME280_humidity;BME280_pressure;Samples;Min_cycle;Max_cycle;Signal;HPM_P1;HPM_P2
2021/08/26 00:01:03;;;;;;;3.17;0.93;;;17.20;99.90;;;;;;5055285;28;20037;-85
2021/08/26 00:06:18;;;;;;;1.60;0.90;;;17.20;99.90;;;;;;5054610;28;20075;-85
2021/08/26 00:08:46;;;;;;;2.55;1.00;;;17.20;99.90;;;;;;5053675;28;20017;-85
2021/08/26 00:11:13;;;;;;;3.20;1.27;;;17.20;99.90;;;;;;5055120;28;20029;-84
2021/08/26 00:13:43;;;;;;;1.90;1.00;;;17.20;99.90;;;;;;5053595;28;20025;-86
2021/08/26 00:16:09;;;;;;;3.38;1.25;;;17.20;99.90;;;;;;5053415;28;20021;-85
2021/08/26 00:18:35;;;;;;;4.43;1.30;;;17.10;99.90;;;;;;5051416;28;20017;-86
2021/08/26 00:21:01;;;;;;;3.53;1.60;;;17.10;99.90;;;;;;5054069;28;20111;-86
2021/08/26 00:23:28;;;;;;;2.90;1.23;;;17.10;99.90;;;;;;5053548;28;20163;-85
2021/08/26 00:25:54;;;;;;;2.25;1.10;;;17.10;99.90;;;;;;5052781;28;20029;-85
2021/08/26 00:28:20;;;;;;;3.53;1.40;;;17.00;99.90;;;;;;5049232;28;20056;-86
2021/08/26 00:30:46;;;;;;;2.17;1.02;;;17.10;99.90;;;;;;5043545;28;20017;-85
2021/08/26 00:33:13;;;;;;;3.28;1.58;;;17.00;99.90;;;;;;5042976;28;20095;-86
2021/08/26 00:35:39;;;;;;;4.53;1.30;;;17.00;99.90;;;;;;5040863;28;20036;-85
2021/08/26 00:38:05;;;;;;;2.97;1.30;;;17.00;99.90;;;;;;5042675;28;20029;-87
2021/08/26 00:40:31;;;;;;;2.60;1.00;;;17.00;99.90;;;;;;5044297;28;20021;-86
2021/08/26 00:42:59;;;;;;;2.40;0.90;;;16.90;99.90;;;;;;5036756;28;20104;-85
2021/08/26 00:45:25;;;;;;;3.22;1.20;;;17.00;99.90;;;;;;5033610;28;20033;-84
2021/08/26 00:47:52;;;;;;;1.63;0.70;;;17.00;99.90;;;;;;5032375;28;20532;-84
2021/08/26 00:50:18;;;;;;;3.40;1.13;;;17.00;99.90;;;;;;5032277;28;20127;-85
2021/08/26 00:52:46;;;;;;;3.20;1.00;;;17.00;99.90;;;;;;5032195;28;20025;-83
2021/08/26 00:55:13;;;;;;;3.78;1.15;;;17.00;99.90;;;;;;5033043;28;20026;-85
2021/08/26 00:57:39;;;;;;;2.05;1.00;;;17.00;99.90;;;;;;5032940;28;20505;-84
2021/08/26 01:00:13;;;;;;;3.13;1.08;;;17.00;99.90;;;;;;5031858;28;20033;-85
2021/08/26 01:02:41;;;;;;;;;;;17.00;99.90;;;;;;5032762;28;20033;-86
2021/08/26 01:05:24;;;;;;;2.13;1.02;;;16.90;99.90;;;;;;5033905;28;19916;-85
2021/08/26 01:08:21;;;;;;;3.30;1.10;;;16.90;99.90;;;;;;5034950;28;20377;-85
2021/08/26 01:10:53;;;;;;;2.03;0.93;;;16.90;99.90;;;;;;5033787;28;20488;-85
2021/08/26 01:13:20;;;;;;;2.80;1.20;;;16.90;99.90;;;;;;5034660;28;20026;-85
2021/08/26 01:16:08;;;;;;;2.67;1.55;;;16.90;99.90;;;;;;5033802;28;20022;-85
2021/08/26 01:18:39;;;;;;;3.05;1.10;;;16.90;99.90;;;;;;5033681;28;20033;-86
2021/08/26 01:21:13;;;;;;;4.40;1.60;;;16.90;99.90;;;;;;5033657;28;20030;-85
2021/08/26 01:23:49;;;;;;;4.18;1.52;;;16.80;99.90;;;;;;5033512;28;20021;-86
2021/08/26 01:26:35;;;;;;;3.88;1.52;;;16.80;99.90;;;;;;5033357;28;20496;-85
2021/08/26 01:29:02;;;;;;;5.40;1.70;;;16.80;99.90;;;;;;5047200;28;20049;-85
2021/08/26 01:31:30;;;;;;;2.92;1.42;;;16.70;99.90;;;;;;5053306;28;20021;-86
2021/08/26 01:33:57;;;;;;;3.88;1.70;;;16.60;99.90;;;;;;5053279;28;20021;-85
2021/08/26 01:36:28;;;;;;;3.00;1.30;;;16.70;99.90;;;;;;5053038;28;20086;-85
2021/08/26 01:39:03;;;;;;;4.60;1.38;;;16.70;99.90;;;;;;5053042;28;20025;-86
2021/08/26 01:41:48;;;;;;;5.05;1.52;;;16.70;99.90;;;;;;5052006;28;20484;-85
2021/08/26 01:44:28;;;;;;;2.92;1.30;;;16.60;99.90;;;;;;5052998;28;20028;-85
2021/08/26 01:47:03;;;;;;;5.32;1.50;;;16.60;99.90;;;;;;5052724;28;20028;-86
2021/08/26 01:49:29;;;;;;;5.65;1.58;;;16.60;99.90;;;;;;5053004;28;20062;-86
2021/08/26 01:51:56;;;;;;;2.67;1.13;;;16.60;99.90;;;;;;5053061;28;20033;-86
2021/08/26 01:54:21;;;;;;;4.40;2.00;;;16.60;99.90;;;;;;5052249;28;20033;-86
2021/08/26 01:56:49;;;;;;;6.68;1.92;;;16.50;99.90;;;;;;5052950;28;20431;-86
2021/08/26 01:59:15;;;;;;;5.55;1.92;;;16.60;99.90;;;;;;5052719;28;20025;-85
2021/08/26 02:01:41;;;;;;;7.15;1.77;;;16.50;99.90;;;;;;5052687;28;20614;-85
2021/08/26 02:04:08;;;;;;;4.30;1.77;;;16.50;99.90;;;;;;5052686;28;20492;-87
2021/08/26 02:06:34;;;;;;;6.75;2.15;;;16.50;99.90;;;;;;5052625;28;20120;-86
2021/08/26 02:08:59;;;;;;;6.35;2.03;;;16.50;99.90;;;;;;5052559;28;20115;-86
2021/08/26 02:11:25;;;;;;;8.77;2.05;;;16.50;99.90;;;;;;5052596;28;20029;-86
2021/08/26 02:13:51;;;;;;;9.25;2.95;;;16.50;99.90;;;;;;5052571;28;20017;-86
2021/08/26 02:16:17;;;;;;;9.55;2.65;;;16.40;99.90;;;;;;5052517;28;20025;-87
2021/08/26 02:18:44;;;;;;;8.15;2.33;;;16.40;99.90;;;;;;5053599;28;20025;-85
2021/08/26 02:21:10;;;;;;;7.55;2.40;;;16.30;99.90;;;;;;5052401;28;20147;-85
2021/08/26 02:23:36;;;;;;;5.28;2.38;;;16.30;99.90;;;;;;5052559;28;20021;-86
2021/08/26 02:26:03;;;;;;;7.25;2.25;;;16.30;99.90;;;;;;5052372;28;20114;-87
2021/08/26 02:28:29;;;;;;;8.10;2.65;;;16.30;99.90;;;;;;5042548;28;20489;-87
2021/08/26 02:30:55;;;;;;;9.43;2.80;;;16.20;99.90;;;;;;5032749;28;20048;-86
2021/08/26 02:33:21;;;;;;;6.57;2.50;;;16.10;99.90;;;;;;5032451;28;20021;-86
2021/08/26 02:35:47;;;;;;;7.40;2.65;;;16.10;99.90;;;;;;5032352;28;20036;-87
2021/08/26 02:38:13;;;;;;;9.18;2.50;;;16.10;99.90;;;;;;5033913;28;20029;-86
2021/08/26 02:40:39;;;;;;;5.68;2.22;;;16.10;99.90;;;;;;5032269;28;20018;-86
2021/08/26 02:43:05;;;;;;;6.90;2.28;;;16.10;99.90;;;;;;5032437;28;20030;-86
2021/08/26 02:45:30;;;;;;;7.55;2.33;;;16.10;99.90;;;;;;5032424;28;20018;-85
2021/08/26 02:47:56;;;;;;;8.05;2.35;;;16.10;99.90;;;;;;5032493;28;20034;-86
2021/08/26 02:50:22;;;;;;;8.20;2.85;;;16.10;99.90;;;;;;5033579;28;20033;-86
2021/08/26 02:52:48;;;;;;;6.80;2.17;;;16.10;99.90;;;;;;5032388;28;20017;-86
2021/08/26 02:55:14;;;;;;;7.30;2.40;;;16.10;99.90;;;;;;5033005;28;20557;-86
2021/08/26 02:57:40;;;;;;;8.00;2.92;;;16.10;99.90;;;;;;5032014;28;20026;-86
2021/08/26 03:00:07;;;;;;;7.60;2.70;;;16.10;99.90;;;;;;5033620;28;20025;-86
2021/08/26 03:02:35;;;;;;;6.38;2.00;;;16.10;99.90;;;;;;5032193;28;20022;-86
2021/08/26 03:05:01;;;;;;;8.18;2.45;;;16.10;99.90;;;;;;5034444;28;20036;-86
2021/08/26 03:07:27;;;;;;;7.05;2.45;;;16.10;99.90;;;;;;5035760;28;20504;-86
2021/08/26 03:09:53;;;;;;;5.75;2.33;;;16.10;99.90;;;;;;5036032;28;20029;-85
2021/08/26 03:12:19;;;;;;;6.68;2.45;;;16.10;99.90;;;;;;5035796;28;20116;-86
2021/08/26 03:14:45;;;;;;;11.05;2.80;;;16.10;99.90;;;;;;5035927;28;20022;-86
2021/08/26 03:17:11;;;;;;;9.38;2.80;;;16.10;99.90;;;;;;5035629;28;20022;-86
2021/08/26 03:19:38;;;;;;;5.85;2.40;;;16.10;99.90;;;;;;5035600;28;20064;-85
2021/08/26 03:22:03;;;;;;;4.80;2.30;;;16.10;99.90;;;;;;5036726;28;20103;-86
2021/08/26 03:24:30;;;;;;;6.50;2.47;;;16.10;99.90;;;;;;5035543;28;20088;-87
2021/08/26 03:26:55;;;;;;;8.32;2.22;;;16.10;99.90;;;;;;5035843;28;20052;-86
2021/08/26 03:29:21;;;;;;;7.47;2.90;;;16.10;99.90;;;;;;5070931;28;20497;-86
2021/08/26 03:31:48;;;;;;;7.22;2.45;;;16.00;99.90;;;;;;5058792;28;20033;-86
2021/08/26 03:34:14;;;;;;;9.40;3.35;;;16.00;99.90;;;;;;5076672;28;20025;-86
2021/08/26 03:36:39;;;;;;;6.57;2.20;;;16.00;99.90;;;;;;5077047;28;20029;-86
2021/08/26 03:39:05;;;;;;;10.07;2.70;;;16.00;99.90;;;;;;5058922;28;20029;-87
2021/08/26 03:41:31;;;;;;;9.02;2.65;;;16.00;99.90;;;;;;5058812;28;20021;-86
2021/08/26 03:43:57;;;;;;;7.75;2.88;;;16.00;99.90;;;;;;5058809;28;20033;-86
2021/08/26 03:46:22;;;;;;;8.15;3.00;;;15.90;99.90;;;;;;5058852;28;20510;-87
2021/08/26 03:48:50;;;;;;;8.85;3.15;;;15.90;99.90;;;;;;5058807;28;20082;-86
2021/08/26 03:51:16;;;;;;;8.23;2.78;;;15.90;99.90;;;;;;5058693;28;20120;-86
2021/08/26 03:53:42;;;;;;;7.28;2.63;;;15.90;99.90;;;;;;5058183;28;20025;-87
2021/08/26 03:56:08;;;;;;;7.80;2.70;;;15.90;99.90;;;;;;5058151;28;20062;-86
2021/08/26 03:58:35;;;;;;;7.07;2.42;;;16.00;99.90;;;;;;5058466;28;20380;-86
2021/08/26 04:01:05;;;;;;;7.57;2.90;;;15.90;99.90;;;;;;5058418;28;20020;-87
2021/08/26 04:03:31;;;;;;;7.03;2.65;;;16.00;99.90;;;;;;5058193;28;20020;-86
2021/08/26 04:05:57;;;;;;;8.38;2.38;;;16.00;99.90;;;;;;5056781;28;20027;-86
2021/08/26 04:08:23;;;;;;;8.65;2.47;;;15.90;99.90;;;;;;5057595;28;20066;-87
2021/08/26 04:10:49;;;;;;;11.18;2.67;;;15.90;99.90;;;;;;5057353;28;20036;-86
2021/08/26 04:13:15;;;;;;;5.50;2.58;;;15.90;99.90;;;;;;5075125;28;20021;-85
2021/08/26 04:15:41;;;;;;;8.50;3.03;;;15.90;99.90;;;;;;5074434;28;20093;-85
2021/08/26 04:18:07;;;;;;;8.02;2.50;;;15.90;99.90;;;;;;5075250;28;20071;-85
2021/08/26 04:20:33;;;;;;;6.90;2.10;;;15.90;99.90;;;;;;5057127;28;20143;-84
2021/08/26 04:22:59;;;;;;;6.97;2.95;;;15.90;99.90;;;;;;5057242;28;20033;-86
2021/08/26 04:25:25;;;;;;;6.38;2.30;;;15.80;99.90;;;;;;5056741;28;20431;-86
2021/08/26 04:27:51;;;;;;;8.05;2.40;;;15.80;99.90;;;;;;5056553;28;20097;-87
2021/08/26 04:30:17;;;;;;;8.13;2.85;;;15.80;99.90;;;;;;5057249;28;20093;-86
2021/08/26 04:32:43;;;;;;;13.23;2.65;;;15.80;99.90;;;;;;5075448;28;20024;-86
2021/08/26 04:35:09;;;;;;;7.35;2.40;;;15.70;99.90;;;;;;5057739;28;20035;-86
2021/08/26 04:37:35;;;;;;;9.60;2.65;;;15.70;99.90;;;;;;5057584;28;20024;-86
2021/08/26 04:40:01;;;;;;;6.18;2.10;;;15.60;99.90;;;;;;5057820;28;20565;-87
2021/08/26 04:42:27;;;;;;;9.15;2.60;;;15.60;99.90;;;;;;5057280;28;20068;-87
2021/08/26 04:44:53;;;;;;;9.60;2.50;;;15.60;99.90;;;;;;5057611;28;20074;-87
2021/08/26 04:47:19;;;;;;;7.35;2.38;;;15.70;99.90;;;;;;5056868;28;20021;-87
2021/08/26 04:49:45;;;;;;;6.65;2.63;;;15.60;99.90;;;;;;5056592;28;20373;-87
2021/08/26 04:52:14;;;;;;;9.25;2.33;;;15.60;99.90;;;;;;5057594;28;20025;-87
2021/08/26 04:54:41;;;;;;;9.55;2.28;;;15.60;99.90;;;;;;5055412;28;20036;-85
2021/08/26 04:57:07;;;;;;;7.05;2.05;;;15.60;99.90;;;;;;5055339;28;20553;-87
2021/08/26 04:59:33;;;;;;;7.60;2.35;;;15.60;99.90;;;;;;5055044;28;20056;-86
2021/08/26 05:01:59;;;;;;;5.60;2.38;;;15.60;99.90;;;;;;5055507;28;20073;-87
2021/08/26 05:04:25;;;;;;;7.07;2.38;;;15.60;99.90;;;;;;5055300;28;20031;-86
2021/08/26 05:06:52;;;;;;;6.38;2.22;;;15.60;99.90;;;;;;5054246;28;20116;-86
2021/08/26 05:09:18;;;;;;;8.65;2.65;;;15.70;99.90;;;;;;5055146;28;20044;-86
2021/08/26 05:11:44;;;;;;;6.75;2.10;;;15.70;99.90;;;;;;5054772;28;20032;-86
2021/08/26 05:14:11;;;;;;;6.10;1.83;;;15.70;99.90;;;;;;5055101;28;20028;-85
2021/08/26 05:16:37;;;;;;;11.32;2.70;;;15.80;99.90;;;;;;5073394;28;20021;-87
2021/08/26 05:19:03;;;;;;;9.40;2.33;;;15.80;99.90;;;;;;5073864;28;20032;-87
2021/08/26 05:21:29;;;;;;;9.73;2.28;;;15.80;99.90;;;;;;5056362;28;20119;-88
2021/08/26 05:23:56;;;;;;;6.65;2.03;;;15.90;99.90;;;;;;5056779;28;20375;-88
2021/08/26 05:26:22;;;;;;;7.93;2.55;;;15.90;99.90;;;;;;5056773;28;20419;-88
2021/08/26 05:28:48;;;;;;;6.15;1.85;;;15.90;99.90;;;;;;5055463;28;20411;-87
2021/08/26 05:31:15;;;;;;;5.78;2.20;;;15.90;99.90;;;;;;5056528;28;20032;-88
2021/08/26 05:33:41;;;;;;;7.45;2.63;;;16.00;99.90;;;;;;5075004;28;20503;-87
2021/08/26 05:36:07;;;;;;;10.65;2.58;;;16.00;99.90;;;;;;5056578;28;20032;-88
2021/08/26 05:38:33;;;;;;;5.80;2.38;;;15.90;99.90;;;;;;5074761;28;20034;-88
2021/08/26 05:40:59;;;;;;;7.55;2.53;;;15.90;99.90;;;;;;5056677;28;20491;-87
2021/08/26 05:43:25;;;;;;;8.38;2.63;;;15.90;99.90;;;;;;5056190;28;20029;-87
2021/08/26 05:45:51;;;;;;;8.25;2.63;;;15.90;99.90;;;;;;5074188;28;20349;-87
2021/08/26 05:48:17;;;;;;;6.25;1.88;;;15.90;99.90;;;;;;5056105;28;20025;-87
2021/08/26 05:50:43;;;;;;;6.78;2.15;;;15.90;99.90;;;;;;5056555;28;20028;-87
2021/08/26 05:53:09;;;;;;;5.53;1.67;;;15.90;99.90;;;;;;5074104;28;20031;-87
2021/08/26 05:55:35;;;;;;;6.90;1.90;;;15.90;99.90;;;;;;5055997;28;20035;-87
2021/08/26 05:58:01;;;;;;;9.50;2.33;;;15.90;99.90;;;;;;5056150;28;20032;-87
2021/08/26 06:00:27;;;;;;;6.13;2.20;;;16.00;99.90;;;;;;5055829;28;20381;-87
2021/08/26 06:02:53;;;;;;;6.40;1.80;;;16.00;99.90;;;;;;5055767;28;20030;-86
2021/08/26 06:05:19;;;;;;;6.38;1.70;;;16.00;99.90;;;;;;5055981;28;20028;-87
2021/08/26 06:07:46;;;;;;;6.45;2.00;;;16.00;99.90;;;;;;5055787;28;20021;-88
2021/08/26 06:10:12;;;;;;;4.13;1.65;;;16.10;99.90;;;;;;5056190;28;20051;-88
2021/08/26 06:12:41;;;;;;;5.47;1.52;;;16.20;99.90;;;;;;5055923;28;20031;-87
2021/08/26 06:15:09;;;;;;;7.28;2.00;;;16.30;99.90;;;;;;5073736;28;20025;-87
2021/08/26 06:17:34;;;;;;;8.35;1.90;;;16.40;99.90;;;;;;5056166;28;20024;-87
2021/08/26 06:20:02;;;;;;;8.57;2.05;;;16.40;99.90;;;;;;5055782;28;20020;-87
2021/08/26 06:22:29;;;;;;;6.55;1.67;;;16.40;99.90;;;;;;5055236;28;20032;-87
2021/08/26 06:24:54;;;;;;;4.78;1.83;;;16.50;99.90;;;;;;5055344;28;20035;-88
2021/08/26 06:27:20;;;;;;;6.65;1.88;;;16.50;99.90;;;;;;5055553;28;20108;-87
2021/08/26 06:29:46;;;;;;;6.43;2.03;;;16.50;99.90;;;;;;5038892;28;20031;-87
2021/08/26 06:32:12;;;;;;;5.85;1.83;;;16.50;99.90;;;;;;5055624;28;20020;-87
2021/08/26 06:34:38;;;;;;;5.47;1.80;;;16.50;99.90;;;;;;5056023;28;20461;-87
2021/08/26 06:37:05;;;;;;;4.13;1.50;;;16.50;99.90;;;;;;5073651;28;20369;-87
2021/08/26 06:39:31;;;;;;;8.63;1.83;;;16.50;99.90;;;;;;5055389;28;20085;-86
2021/08/26 06:41:56;;;;;;;7.55;2.33;;;16.50;99.90;;;;;;5056122;28;20349;-87
2021/08/26 06:44:23;;;;;;;7.20;2.10;;;16.50;99.90;;;;;;5075360;28;20373;-87
2021/08/26 06:46:49;;;;;;;8.10;2.28;;;16.50;99.90;;;;;;5072935;28;20676;-87
2021/08/26 06:49:15;;;;;;;4.97;1.65;;;16.60;99.90;;;;;;5055850;28;20040;-87
2021/08/26 06:51:41;;;;;;;9.32;2.40;;;16.70;99.90;;;;;;5055593;28;20384;-87
2021/08/26 06:54:07;;;;;;;7.95;1.83;;;16.70;99.90;;;;;;5055723;28;20148;-88
2021/08/26 06:56:34;;;;;;;6.75;1.73;;;16.80;99.90;;;;;;5055719;28;20115;-88
2021/08/26 06:59:00;;;;;;;4.85;1.52;;;16.90;99.90;;;;;;5038976;28;20070;-86
2021/08/26 07:01:28;;;;;;;3.55;1.45;;;17.00;99.90;;;;;;5073196;28;20021;-87
2021/08/26 07:03:54;;;;;;;7.63;1.80;;;17.00;99.90;;;;;;5055562;28;20047;-87
2021/08/26 07:06:20;;;;;;;6.68;1.70;;;17.00;99.90;;;;;;5055502;28;20032;-86
2021/08/26 07:08:46;;;;;;;8.43;2.03;;;16.90;99.90;;;;;;5073390;28;20024;-87
2021/08/26 07:11:12;;;;;;;7.05;1.90;;;16.80;99.90;;;;;;5055609;28;20056;-88
2021/08/26 07:13:38;;;;;;;8.80;1.88;;;16.70;99.90;;;;;;5055647;28;20074;-87
2021/08/26 07:16:05;;;;;;;4.28;1.38;;;16.70;99.90;;;;;;5055499;28;20016;-87
2021/08/26 07:18:31;;;;;;;5.70;1.55;;;16.70;99.90;;;;;;5055483;28;20056;-88
2021/08/26 07:20:57;;;;;;;5.70;1.48;;;16.70;99.90;;;;;;5055561;28;20032;-87
2021/08/26 07:23:23;;;;;;;4.90;1.35;;;16.70;99.90;;;;;;5073155;28;20582;-86
2021/08/26 07:25:50;;;;;;;9.52;1.63;;;16.70;99.90;;;;;;5055104;28;20037;-87
2021/08/26 07:28:16;;;;;;;6.90;1.67;;;16.70;99.90;;;;;;5051475;28;20064;-86
2021/08/26 07:30:42;;;;;;;7.00;1.50;;;16.60;99.90;;;;;;5053461;28;20029;-87
2021/08/26 07:33:08;;;;;;;6.20;1.67;;;16.70;99.90;;;;;;5052247;28;20029;-87
2021/08/26 07:35:34;;;;;;;5.05;1.58;;;16.70;99.90;;;;;;5051822;28;20465;-87
2021/08/26 07:38:00;;;;;;;7.25;2.08;;;16.80;99.90;;;;;;5051653;28;20025;-87
2021/08/26 07:40:27;;;;;;;4.90;1.52;;;16.70;99.90;;;;;;5053052;28;20606;-87
2021/08/26 07:42:54;;;;;;;6.72;1.58;;;16.70;99.90;;;;;;5052030;28;20033;-86
2021/08/26 07:45:20;;;;;;;5.32;1.63;;;16.70;99.90;;;;;;5052037;28;20461;-87
2021/08/26 07:47:46;;;;;;;6.47;2.22;;;16.70;99.90;;;;;;5051914;28;20090;-87
2021/08/26 07:50:13;;;;;;;6.43;1.60;;;16.60;99.90;;;;;;5053268;28;20025;-87
2021/08/26 07:52:40;;;;;;;5.22;1.33;;;16.60;99.90;;;;;;5054909;28;20354;-87
2021/08/26 07:55:06;;;;;;;5.80;1.60;;;16.60;99.90;;;;;;5055229;28;20036;-89
2021/08/26 07:57:34;;;;;;;3.70;1.30;;;16.70;99.90;;;;;;5055319;28;20029;-87
2021/08/26 08:00:00;;;;;;;5.25;1.50;;;16.70;99.90;;;;;;5055031;28;20025;-86
2021/08/26 08:02:25;;;;;;;4.40;1.55;;;16.90;99.90;;;;;;5055343;28;20376;-88
2021/08/26 08:04:51;;;;;;;5.10;1.20;;;17.00;99.90;;;;;;5054981;28;20440;-88
2021/08/26 08:07:17;;;;;;;5.88;1.60;;;17.20;99.90;;;;;;5054384;28;20071;-87
2021/08/26 08:09:44;;;;;;;6.40;1.70;;;17.40;99.90;;;;;;5054504;28;20461;-87
2021/08/26 08:12:10;;;;;;;4.20;1.42;;;17.60;99.90;;;;;;5053610;28;20056;-87
2021/08/26 08:14:36;;;;;;;5.68;1.40;;;17.70;99.90;;;;;;5053641;28;20496;-86
2021/08/26 08:17:03;;;;;;;5.50;1.60;;;18.00;99.90;;;;;;5055374;28;20047;-87
2021/08/26 08:19:29;;;;;;;4.82;1.35;;;18.20;99.90;;;;;;5053950;28;20025;-86
2021/08/26 08:21:55;;;;;;;8.38;1.63;;;18.30;99.90;;;;;;5054361;28;20017;-87
2021/08/26 08:24:21;;;;;;;5.20;1.42;;;18.30;99.90;;;;;;5053976;28;20354;-87
2021/08/26 08:26:46;;;;;;;6.55;1.52;;;18.30;99.90;;;;;;5054167;28;20056;-87
2021/08/26 08:29:13;;;;;;;4.63;1.50;;;18.20;99.90;;;;;;5054124;28;20059;-87
2021/08/26 08:31:39;;;;;;;4.53;1.60;;;18.20;99.90;;;;;;5054729;28;20027;-86
2021/08/26 08:34:05;;;;;;;7.57;2.13;;;18.20;99.90;;;;;;5054445;28;20523;-86
2021/08/26 08:36:31;;;;;;;5.13;1.42;;;17.90;99.90;;;;;;5054612;28;20029;-86
2021/08/26 08:38:56;;;;;;;7.18;2.40;;;17.70;99.90;;;;;;5054260;28;20090;-85
2021/08/26 08:41:22;;;;;;;5.28;1.48;;;17.70;99.90;;;;;;5055116;28;20028;-87
2021/08/26 08:43:49;;;;;;;7.30;1.40;;;17.80;99.90;;;;;;5054115;28;20028;-86
2021/08/26 08:46:18;;;;;;;5.05;1.73;;;18.00;99.90;;;;;;5053198;28;20017;-86
2021/08/26 08:48:44;;;;;;;5.10;1.75;;;18.10;99.90;;;;;;5055479;28;20354;-86
2021/08/26 08:51:11;;;;;;;7.80;1.50;;;18.10;99.90;;;;;;5053612;28;20055;-86
2021/08/26 08:53:38;;;;;;;6.55;1.60;;;18.20;99.90;;;;;;5053866;28;20029;-87
2021/08/26 08:56:08;;;;;;;4.72;1.50;;;18.30;99.90;;;;;;5054915;28;20076;-85
2021/08/26 08:58:36;;;;;;;3.38;1.42;;;18.40;99.90;;;;;;5053845;28;20036;-86
2021/08/26 09:01:03;;;;;;;2.97;1.02;;;18.50;99.90;;;;;;5055376;28;20021;-87
2021/08/26 09:03:30;;;;;;;2.55;1.15;;;18.70;99.90;;;;;;5053047;28;20025;-86
2021/08/26 09:06:00;;;;;;;3.40;1.20;;;19.00;99.90;;;;;;5053531;28;20538;-86
2021/08/26 09:08:31;;;;;;;3.80;1.20;;;19.00;99.90;;;;;;5054543;28;20033;-86
2021/08/26 09:11:17;;;;;;;4.60;1.67;;;19.00;99.90;;;;;;5053566;28;20028;-86
2021/08/26 09:13:46;;;;;;;5.53;1.85;;;19.10;99.90;;;;;;5053645;28;20025;-87
2021/08/26 09:16:12;;;;;;;5.75;1.77;;;19.20;99.90;;;;;;5054999;28;20028;-86
2021/08/26 09:18:39;;;;;;;5.22;1.80;;;19.00;99.90;;;;;;5053401;28;20028;-86
2021/08/26 09:21:10;;;;;;;4.55;1.38;;;19.00;99.90;;;;;;5053297;28;20021;-86
2021/08/26 09:23:56;;;;;;;5.85;1.75;;;19.00;99.90;;;;;;5052521;28;20036;-87
2021/08/26 09:26:25;;;;;;;4.45;1.45;;;19.00;99.90;;;;;;5054401;28;20473;-87
2021/08/26 09:28:52;;;;;;;3.78;1.38;;;19.00;99.90;;;;;;5052362;28;20067;-86
2021/08/26 09:31:22;;;;;;;4.55;1.50;;;19.00;99.90;;;;;;5035944;28;20543;-89
2021/08/26 09:34:07;;;;;;;4.57;1.42;;;19.00;99.90;;;;;;5033394;28;20052;-87
2021/08/26 09:36:48;;;;;;;6.25;1.70;;;19.00;99.90;;;;;;5034155;28;20026;-86
2021/08/26 09:39:21;;;;;;;5.18;1.92;;;19.10;99.90;;;;;;5033087;28;20032;-87
2021/08/26 09:41:54;;;;;;;4.15;1.42;;;19.20;99.90;;;;;;5033237;28;20013;-87
2021/08/26 09:44:25;;;;;;;4.57;1.60;;;19.50;99.90;;;;;;5033148;28;20030;-87
2021/08/26 09:46:53;;;;;;;8.55;2.00;;;19.50;99.90;;;;;;5032732;28;20459;-87
2021/08/26 09:49:21;;;;;;;4.75;1.50;;;19.50;99.90;;;;;;5034008;28;20041;-88
2021/08/26 09:52:07;;;;;;;7.22;1.65;;;19.30;99.90;;;;;;5033881;28;20029;-87
2021/08/26 09:54:34;;;;;;;9.13;1.95;;;19.10;99.90;;;;;;5032695;28;20033;-87
2021/08/26 09:57:01;;;;;;;4.32;1.50;;;19.10;99.90;;;;;;5034011;28;20025;-87
2021/08/26 09:59:39;;;;;;;5.45;1.52;;;19.00;99.90;;;;;;5033776;28;20436;-88
2021/08/26 10:02:06;;;;;;;5.18;1.45;;;19.00;99.90;;;;;;5032749;28;20183;-87
2021/08/26 10:04:32;;;;;;;5.85;1.80;;;19.00;99.90;;;;;;5032559;28;20017;-87
2021/08/26 10:07:00;;;;;;;5.63;1.98;;;19.00;99.90;;;;;;5033513;28;21011;-87
2021/08/26 10:09:29;;;;;;;5.45;1.60;;;19.10;99.90;;;;;;5031612;28;20401;-85
2021/08/26 10:11:55;;;;;;;5.10;1.40;;;19.20;99.90;;;;;;5031208;28;20385;-87
2021/08/26 10:14:21;;;;;;;9.05;2.20;;;19.30;99.90;;;;;;5031123;28;20025;-87
2021/08/26 10:16:48;;;;;;;5.57;1.27;;;19.50;99.90;;;;;;5031072;28;20112;-87
2021/08/26 10:19:16;;;;;;;5.53;1.50;;;19.60;99.90;;;;;;5030518;28;20504;-87
2021/08/26 10:21:44;;;;;;;5.13;1.65;;;19.80;99.90;;;;;;5032293;28;20029;-87
2021/08/26 10:24:14;;;;;;;3.88;1.40;;;20.30;99.90;;;;;;5028824;28;20049;-88
2021/08/26 10:26:46;;;;;;;5.07;1.52;;;20.60;99.90;;;;;;5031174;28;20021;-88
2021/08/26 10:29:14;;;;;;;5.13;2.00;;;20.60;99.90;;;;;;5041811;28;20440;-86
2021/08/26 10:31:40;;;;;;;5.25;1.42;;;20.40;99.90;;;;;;5050889;28;20032;-87
2021/08/26 10:34:21;;;;;;;4.90;1.38;;;20.20;99.90;;;;;;5052009;28;20028;-87
2021/08/26 10:36:59;;;;;;;5.50;1.60;;;19.90;99.90;;;;;;5050552;28;20496;-88
2021/08/26 10:39:36;;;;;;;4.38;1.70;;;19.50;99.90;;;;;;5047880;28;20128;-88
2021/08/26 10:42:28;;;;;;;6.80;1.60;;;19.40;99.90;;;;;;5050578;28;20084;-87
2021/08/26 10:45:18;;;;;;;5.53;2.10;;;19.40;99.90;;;;;;5050508;28;20167;-87
2021/08/26 10:47:52;;;;;;;7.07;2.00;;;19.50;99.90;;;;;;5083933;28;20096;-88
2021/08/26 10:50:24;;;;;;;8.32;2.17;;;19.60;99.90;;;;;;5050233;28;20033;-87
2021/08/26 10:53:08;;;;;;;5.95;1.98;;;19.70;99.90;;;;;;5049776;28;20025;-87
2021/08/26 10:55:43;;;;;;;;;;;19.90;99.90;;;;;;5049078;28;20029;-88
2021/08/26 10:58:25;;;;;;;7.30;2.33;;;19.90;99.90;;;;;;5032889;28;20015;-87
2021/08/26 11:01:02;;;;;;;6.97;2.40;;;20.20;99.90;;;;;;5047506;28;20022;-87
2021/08/26 11:03:46;;;;;;;6.03;2.47;;;20.30;99.90;;;;;;5030185;28;20026;-87
2021/08/26 11:06:28;;;;;;;6.13;2.05;;;20.50;99.90;;;;;;5046911;28;20075;-87
2021/08/26 11:08:56;;;;;;;8.02;2.10;;;20.80;99.90;;;;;;5046523;28;20389;-87
2021/08/26 11:11:45;;;;;;;4.72;1.92;;;21.30;99.90;;;;;;5029711;28;20026;-87
2021/08/26 11:14:20;;;;;;;7.78;2.00;;;22.10;99.90;;;;;;5046605;28;20523;-87
2021/08/26 11:16:53;;;;;;;8.98;2.80;;;22.20;99.90;;;;;;5049672;28;20037;-86
2021/08/26 11:19:20;;;;;;;;;;;22.10;99.90;;;;;;5049588;28;20116;-86
2021/08/26 11:21:47;;;;;;;10.07;2.38;;;22.00;99.90;;;;;;5049039;28;19966;-87
2021/08/26 11:24:16;;;;;;;9.50;2.47;;;22.30;99.90;;;;;;5047727;28;20021;-86
2021/08/26 11:26:53;;;;;;;4.50;1.98;;;22.30;99.90;;;;;;5048868;28;20021;-86
2021/08/26 11:29:22;;;;;;;6.57;1.92;;;22.80;99.90;;;;;;5061751;28;20104;-88
2021/08/26 11:32:02;;;;;;;6.60;2.40;;;24.00;99.90;;;;;;5031556;28;20105;-87
2021/08/26 11:34:40;;;;;;;6.72;2.70;;;24.50;99.90;;;;;;5031405;28;20428;-87
2021/08/26 11:37:34;;;;;;;6.30;1.88;;;24.30;99.90;;;;;;5033775;28;20040;-87
2021/08/26 11:40:05;;;;;;;5.13;1.92;;;23.90;99.90;;;;;;5033375;28;20037;-87
2021/08/26 11:42:48;;;;;;;5.55;2.03;;;23.50;99.90;;;;;;5034312;28;20083;-86
2021/08/26 11:45:25;;;;;;;6.43;1.95;;;23.10;99.90;;;;;;5035847;28;20014;-87
2021/08/26 11:48:03;;;;;;;5.85;2.28;;;22.80;99.90;;;;;;5035571;28;20147;-86
2021/08/26 11:50:38;;;;;;;8.23;2.60;;;22.40;99.90;;;;;;5035942;28;20029;-86
2021/08/26 11:53:07;;;;;;;5.10;2.63;;;22.00;99.90;;;;;;5036018;28;20061;-86
2021/08/26 11:55:37;;;;;;;5.70;2.33;;;21.80;99.90;;;;;;5035195;28;20029;-86
2021/08/26 11:58:06;;;;;;;7.53;2.40;;;21.70;99.90;;;;;;5036692;28;20109;-87
2021/08/26 12:00:38;;;;;;;8.88;3.22;;;21.80;99.90;;;;;;5036544;28;20072;-86
2021/08/26 12:03:04;;;;;;;6.97;2.63;;;21.90;99.90;;;;;;5035273;28;20025;-86
2021/08/26 12:05:31;;;;;;;8.93;2.72;;;22.00;99.90;;;;;;5036489;28;20040;-86
2021/08/26 12:07:57;;;;;;;9.18;2.72;;;21.90;99.90;;;;;;5036556;28;20484;-87
2021/08/26 12:10:30;;;;;;;7.00;2.53;;;21.80;99.90;;;;;;5035546;28;20028;-86
2021/08/26 12:13:09;;;;;;;5.85;2.20;;;21.90;99.90;;;;;;5035358;28;20024;-87
2021/08/26 12:15:39;;;;;;;7.55;2.55;;;22.10;99.90;;;;;;5035406;28;20052;-87
2021/08/26 12:18:21;;;;;;;10.55;2.70;;;22.30;99.90;;;;;;5034741;28;20033;-87
2021/08/26 12:20:51;;;;;;;9.90;2.83;;;22.40;99.90;;;;;;5034624;28;20197;-88
2021/08/26 12:23:27;;;;;;;9.38;2.78;;;23.10;99.90;;;;;;5036326;28;20069;-88
2021/08/26 12:26:16;;;;;;;8.13;3.10;;;23.90;99.90;;;;;;5034479;28;20022;-88
2021/08/26 12:29:00;;;;;;;7.35;3.08;;;24.00;99.90;;;;;;5043056;28;20405;-87
2021/08/26 12:31:28;;;;;;;8.27;3.00;;;23.90;99.90;;;;;;5054402;28;20078;-86
2021/08/26 12:34:13;;;;;;;7.35;2.67;;;23.60;99.90;;;;;;5056207;28;20461;-87
2021/08/26 12:36:44;;;;;;;11.40;3.60;;;23.40;99.90;;;;;;5055181;28;20032;-87
2021/08/26 12:39:21;;;;;;;9.43;3.22;;;23.00;99.90;;;;;;5055490;28;20036;-87
2021/08/26 12:42:15;;;;;;;10.30;3.35;;;22.70;99.90;;;;;;5055374;28;20029;-87
2021/08/26 12:44:41;;;;;;;6.68;3.05;;;22.90;99.90;;;;;;5055555;28;20107;-87
2021/08/26 12:47:08;;;;;;;9.13;2.92;;;23.90;99.90;;;;;;5053391;28;20143;-87
2021/08/26 12:49:45;;;;;;;7.90;2.95;;;24.70;99.90;;;;;;5054893;28;20394;-88
2021/08/26 12:52:13;;;;;;;7.10;2.70;;;24.90;99.90;;;;;;5054057;28;20025;-88
2021/08/26 12:54:42;;;;;;;6.05;2.50;;;25.80;99.90;;;;;;5053896;28;20044;-88
2021/08/26 12:57:23;;;;;;;6.60;2.35;;;27.00;99.90;;;;;;5053845;28;20537;-88
2021/08/26 12:59:49;;;;;;;8.50;2.70;;;28.20;99.70;;;;;;5054538;28;20120;-89